Time;durP1;ratioP1;P1;durP2;ratioP2;P2;SDS_P1;SDS_P2;PMS_P1;PMS_P2;Temp;Humidity;BMP_temperature;BMP_pressure;BME280_temperature;BME280_humidity;BME280_pressure;Samples;Min_cycle;Max_cycle;Signal;HPM_P1;HPM_P2
2021/10/09 00:02:12;;;;;;;20.10;13.40;;;7.40;99.90;;;;;;6243864;22;20639;-88
2021/10/09 00:04:38;;;;;;;18.50;14.00;;;7.40;99.90;;;;;;6243448;22;20169;-89
2021/10/09 00:07:03;;;;;;;16.17;13.13;;;7.30;99.90;;;;;;6243000;22;20216;-89
2021/10/09 00:09:29;;;;;;;17.20;13.03;;;7.30;99.90;;;;;;6243528;22;20252;-88
2021/10/09 00:11:55;;;;;;;20.07;13.80;;;7.20;99.90;;;;;;6244786;22;20161;-89
2021/10/09 00:14:21;;;;;;;16.67;13.40;;;7.20;99.90;;;;;;6242922;22;20401;-89
2021/10/09 00:16:47;;;;;;;18.57;13.10;;;7.10;99.90;;;;;;6242539;22;20173;-89
2021/10/09 00:19:14;;;;;;;17.23;13.20;;;7.10;99.90;;;;;;6244123;22;20403;-89
2021/10/09 00:21:44;;;;;;;15.20;12.00;;;7.10;99.90;;;;;;6242611;22;20393;-89
2021/10/09 00:24:17;;;;;;;13.57;11.37;;;7.10;99.90;;;;;;6242500;22;20405;-88
2021/10/09 00:26:44;;;;;;;18.97;13.83;;;7.10;99.90;;;;;;6243106;22;20404;-89
2021/10/09 00:29:11;;;;;;;17.80;14.23;;;7.10;99.90;;;;;;6243363;22;20502;-89
2021/10/09 00:31:37;;;;;;;18.30;14.30;;;7.20;99.90;;;;;;6242759;22;20406;-89
2021/10/09 00:34:03;;;;;;;15.93;13.50;;;7.20;99.90;;;;;;6243895;22;20858;-89
2021/10/09 00:36:29;;;;;;;17.90;13.67;;;7.10;99.90;;;;;;6243637;22;20886;-89
2021/10/09 00:38:54;;;;;;;18.60;15.27;;;7.10;99.90;;;;;;6244698;22;20474;-89
2021/10/09 00:41:21;;;;;;;18.97;15.10;;;7.10;99.90;;;;;;6248086;22;20200;-89
2021/10/09 00:43:46;;;;;;;19.27;14.47;;;7.00;99.90;;;;;;6242799;22;20162;-89
2021/10/09 00:46:12;;;;;;;22.10;14.30;;;6.90;99.90;;;;;;6242905;22;20436;-89
2021/10/09 00:48:38;;;;;;;19.30;15.10;;;7.00;99.90;;;;;;6243318;22;20175;-89
2021/10/09 00:51:06;;;;;;;23.00;16.20;;;7.10;99.90;;;;;;6242799;22;20392;-88
2021/10/09 00:53:39;;;;;;;21.50;16.03;;;7.10;99.90;;;;;;6243249;22;20186;-88
2021/10/09 00:56:09;;;;;;;18.77;14.50;;;7.00;99.90;;;;;;6242407;22;20397;-88
2021/10/09 00:58:37;;;;;;;18.70;14.70;;;7.00;99.90;;;;;;6241250;22;20389;-89
2021/10/09 01:01:03;;;;;;;24.30;15.73;;;7.00;99.90;;;;;;6242937;22;20400;-89
2021/10/09 01:03:30;;;;;;;18.30;13.90;;;6.90;99.90;;;;;;6243265;22;20399;-89
2021/10/09 01:05:56;;;;;;;25.50;16.07;;;6.90;99.90;;;;;;6243801;22;20154;-89
2021/10/09 01:08:23;;;;;;;19.57;16.20;;;6.90;99.90;;;;;;6242371;22;20420;-89
2021/10/09 01:10:48;;;;;;;20.57;15.00;;;7.00;99.90;;;;;;6243299;22;20410;-89
2021/10/09 01:13:14;;;;;;;21.00;16.07;;;7.10;99.90;;;;;;6243040;22;20251;-89
2021/10/09 01:15:39;;;;;;;20.37;15.90;;;7.20;99.90;;;;;;6242609;22;20162;-89
2021/10/09 01:18:10;;;;;;;20.17;15.10;;;7.10;99.90;;;;;;6242564;22;20500;-89
2021/10/09 01:20:58;;;;;;;20.90;16.50;;;7.10;99.90;;;;;;6243146;22;20162;-89
2021/10/09 01:23:24;;;;;;;16.40;14.00;;;7.00;99.90;;;;;;6242658;22;20396;-88
2021/10/09 01:25:50;;;;;;;17.83;13.47;;;7.00;99.90;;;;;;6242233;22;20387;-89
2021/10/09 01:28:16;;;;;;;20.17;15.80;;;7.00;99.90;;;;;;6242465;22;20155;-89
2021/10/09 01:30:42;;;;;;;16.43;14.33;;;6.90;99.90;;;;;;6241965;22;20427;-89
2021/10/09 01:33:08;;;;;;;19.60;15.00;;;6.90;99.90;;;;;;6242911;22;20196;-89
2021/10/09 01:35:49;;;;;;;17.27;13.67;;;6.90;99.90;;;;;;6242236;22;20402;-89
2021/10/09 01:38:15;;;;;;;16.93;15.03;;;6.90;99.90;;;;;;6242127;22;20711;-89
2021/10/09 01:40:41;;;;;;;19.97;16.00;;;6.90;99.90;;;;;;6242543;22;20763;-89
2021/10/09 01:43:11;;;;;;;19.03;15.97;;;6.90;99.90;;;;;;6243168;22;20412;-89
2021/10/09 01:45:40;;;;;;;20.23;16.80;;;6.80;99.90;;;;;;6242238;22;20608;-89
2021/10/09 01:48:05;;;;;;;22.90;16.83;;;6.80;99.90;;;;;;6242766;22;20527;-89
2021/10/09 01:50:31;;;;;;;21.27;15.57;;;6.80;99.90;;;;;;6243605;22;20404;-89
2021/10/09 01:52:57;;;;;;;25.10;16.00;;;6.80;99.90;;;;;;6241446;22;20196;-89
2021/10/09 01:55:23;;;;;;;20.90;15.80;;;6.80;99.90;;;;;;6241772;22;20392;-89
2021/10/09 01:57:49;;;;;;;22.27;17.30;;;6.80;99.90;;;;;;6243316;22;20157;-89
2021/10/09 02:00:15;;;;;;;19.17;15.47;;;6.80;99.90;;;;;;6268419;22;20162;-88
2021/10/09 02:02:40;;;;;;;19.57;15.50;;;6.80;99.90;;;;;;6267593;22;20968;-89
2021/10/09 02:05:06;;;;;;;21.20;15.70;;;6.90;99.90;;;;;;6269220;22;20380;-89
2021/10/09 02:07:32;;;;;;;22.00;15.83;;;6.80;99.90;;;;;;6243342;22;20169;-89
2021/10/09 02:09:58;;;;;;;21.20;16.00;;;6.70;99.90;;;;;;6245333;22;20435;-89
2021/10/09 02:12:25;;;;;;;20.80;15.40;;;6.70;99.90;;;;;;6245289;22;20186;-89
2021/10/09 02:14:57;;;;;;;23.30;16.80;;;6.70;99.90;;;;;;6242253;22;20391;-89
2021/10/09 02:25:39;;;;;;;20.80;17.30;;;6.80;99.90;;;;;;6269465;22;20387;-88
2021/10/09 02:28:07;;;;;;;17.90;14.70;;;6.80;99.90;;;;;;6242216;22;20399;-88
2021/10/09 02:30:33;;;;;;;18.67;14.40;;;6.70;99.90;;;;;;6267435;22;20469;-88
2021/10/09 02:32:59;;;;;;;19.90;15.90;;;6.70;99.90;;;;;;6270459;22;20460;-89
2021/10/09 02:35:24;;;;;;;18.53;15.20;;;6.70;99.90;;;;;;6242132;22;20399;-89
2021/10/09 02:37:50;;;;;;;23.27;15.10;;;6.70;99.90;;;;;;6242597;22;20163;-89
2021/10/09 02:40:16;;;;;;;21.63;14.33;;;6.70;99.90;;;;;;6243159;22;20237;-89
2021/10/09 02:42:41;;;;;;;20.83;14.90;;;6.60;99.90;;;;;;6242949;22;20174;-89
2021/10/09 02:45:07;;;;;;;21.40;14.23;;;6.60;99.90;;;;;;6242021;22;20161;-90
2021/10/09 02:47:33;;;;;;;19.30;14.47;;;6.50;99.90;;;;;;6242862;22;20167;-89
2021/10/09 02:49:58;;;;;;;19.30;15.37;;;6.50;99.90;;;;;;6242802;22;20452;-89
2021/10/09 02:52:24;;;;;;;19.80;15.00;;;6.40;99.90;;;;;;6242646;22;20262;-89
2021/10/09 02:54:50;;;;;;;18.23;13.30;;;6.40;99.90;;;;;;6239286;22;20238;-89
2021/10/09 02:57:15;;;;;;;21.33;15.73;;;6.30;99.90;;;;;;6241579;22;20164;-88
2021/10/09 02:59:41;;;;;;;20.73;15.17;;;6.30;99.90;;;;;;6241863;22;20508;-89
2021/10/09 03:02:06;;;;;;;18.13;14.27;;;6.30;99.90;;;;;;6242156;22;20440;-89
2021/10/09 03:04:32;;;;;;;16.40;13.20;;;6.30;99.90;;;;;;6241839;22;20600;-88
2021/10/09 03:06:58;;;;;;;17.70;13.50;;;6.30;99.90;;;;;;6244262;22;20202;-89
2021/10/09 03:09:23;;;;;;;22.80;14.90;;;6.30;99.90;;;;;;6244524;22;20154;-88
2021/10/09 03:11:49;;;;;;;17.77;13.40;;;6.40;99.90;;;;;;6243397;22;20245;-89
2021/10/09 03:14:15;;;;;;;18.90;13.73;;;6.30;99.90;;;;;;6244292;22;20197;-88
2021/10/09 03:16:40;;;;;;;16.77;13.80;;;6.30;99.90;;;;;;6243483;22;20165;-89
2021/10/09 03:19:06;;;;;;;15.17;12.90;;;6.20;99.90;;;;;;6243795;22;20243;-89
2021/10/09 03:21:32;;;;;;;20.03;14.33;;;6.20;99.90;;;;;;6244500;22;20224;-89
2021/10/09 03:23:57;;;;;;;16.20;13.80;;;6.20;99.90;;;;;;6242813;22;20168;-88
2021/10/09 03:26:23;;;;;;;15.87;13.23;;;6.20;99.90;;;;;;6243234;22;20209;-88
2021/10/09 03:28:49;;;;;;;17.73;13.97;;;6.20;99.90;;;;;;6243854;22;20224;-89
2021/10/09 03:31:14;;;;;;;18.80;14.20;;;6.10;99.90;;;;;;6244107;22;20452;-88
2021/10/09 03:33:40;;;;;;;17.50;13.03;;;6.10;99.90;;;;;;6243918;22;20196;-89
2021/10/09 03:36:06;;;;;;;15.77;13.60;;;6.10;99.90;;;;;;6244169;22;20173;-88
2021/10/09 03:38:32;;;;;;;17.97;14.43;;;5.90;99.90;;;;;;6244380;22;20250;-88
2021/10/09 03:41:03;;;;;;;18.27;13.77;;;5.90;99.90;;;;;;6248380;22;20151;-88
2021/10/09 03:43:28;;;;;;;26.27;14.20;;;5.80;99.90;;;;;;6245072;22;20398;-88
2021/10/09 03:53:57;;;;;;;19.10;14.47;;;5.80;99.90;;;;;;6269081;22;20914;-89
2021/10/09 03:56:23;;;;;;;15.80;13.90;;;5.80;99.90;;;;;;6244100;22;20420;-88
2021/10/09 03:58:48;;;;;;;19.20;14.73;;;5.90;99.90;;;;;;6240274;22;20486;-88
2021/10/09 04:01:14;;;;;;;16.93;13.77;;;5.90;99.90;;;;;;6241675;22;20189;-88
2021/10/09 04:03:40;;;;;;;16.57;13.70;;;6.00;99.90;;;;;;6243015;22;20265;-89
2021/10/09 04:06:05;;;;;;;15.90;12.40;;;5.90;99.90;;;;;;6241718;22;20472;-88
2021/10/09 04:08:31;;;;;;;15.53;12.67;;;5.70;99.90;;;;;;6242486;22;20162;-89
2021/10/09 04:10:57;;;;;;;17.27;12.70;;;5.60;99.90;;;;;;6243208;22;20216;-89
2021/10/09 04:13:22;;;;;;;17.17;12.53;;;5.60;99.90;;;;;;6243165;22;20195;-88
2021/10/09 04:15:48;;;;;;;16.73;13.57;;;5.60;99.90;;;;;;6241278;22;20157;-88
2021/10/09 04:18:14;;;;;;;17.53;12.37;;;5.60;99.90;;;;;;6243407;22;20388;-88
2021/10/09 04:20:39;;;;;;;13.97;10.53;;;5.70;99.90;;;;;;6242019;22;20241;-88
2021/10/09 04:23:06;;;;;;;18.07;12.57;;;5.80;99.90;;;;;;6242377;22;20162;-89
2021/10/09 04:25:31;;;;;;;17.63;11.67;;;5.70;99.90;;;;;;6242583;22;20212;-88
2021/10/09 04:27:57;;;;;;;15.20;11.60;;;5.70;99.90;;;;;;6243742;22;20863;-89
2021/10/09 04:30:23;;;;;;;14.93;11.90;;;5.70;99.90;;;;;;6242825;22;20163;-89
2021/10/09 04:32:48;;;;;;;16.50;13.17;;;5.70;99.90;;;;;;6242817;22;20198;-88
2021/10/09 04:35:14;;;;;;;15.37;12.40;;;5.60;99.90;;;;;;6244274;22;20186;-89
2021/10/09 04:37:40;;;;;;;16.27;13.10;;;5.60;99.90;;;;;;6243055;22;20170;-89
2021/10/09 04:40:06;;;;;;;17.10;12.13;;;5.50;99.90;;;;;;6243705;22;20590;-89
2021/10/09 04:42:32;;;;;;;17.73;11.83;;;5.50;99.90;;;;;;6243693;22;20304;-88
2021/10/09 04:44:58;;;;;;;16.53;13.27;;;5.50;99.90;;;;;;6243398;22;20424;-89
2021/10/09 04:47:23;;;;;;;18.03;13.33;;;5.60;99.90;;;;;;6243645;22;20562;-88
2021/10/09 04:49:49;;;;;;;13.70;11.97;;;5.60;99.90;;;;;;6243500;22;20231;-89
2021/10/09 04:52:15;;;;;;;19.03;13.47;;;5.60;99.90;;;;;;6244315;22;20616;-88
2021/10/09 04:54:40;;;;;;;16.33;12.53;;;5.60;99.90;;;;;;6242835;22;20166;-88
2021/10/09 04:57:06;;;;;;;17.27;14.17;;;5.50;99.90;;;;;;6243938;22;20604;-88
2021/10/09 04:59:31;;;;;;;17.27;12.17;;;5.50;99.90;;;;;;6244098;22;20166;-88
2021/10/09 05:01:57;;;;;;;17.20;12.50;;;5.60;99.90;;;;;;6243961;22;20550;-88
2021/10/09 05:04:23;;;;;;;21.67;11.90;;;5.60;99.90;;;;;;6243781;22;20188;-89
2021/10/09 05:06:48;;;;;;;15.60;12.50;;;5.70;99.90;;;;;;6243443;22;20162;-89
2021/10/09 05:09:14;;;;;;;16.70;12.90;;;5.80;99.90;;;;;;6247286;22;20162;-89
2021/10/09 05:11:40;;;;;;;16.60;13.20;;;5.80;99.90;;;;;;6257095;22;20600;-88
2021/10/09 05:14:05;;;;;;;19.90;13.50;;;5.80;99.90;;;;;;6244260;22;20223;-89
2021/10/09 05:16:31;;;;;;;16.90;12.67;;;5.80;99.90;;;;;;6243148;22;20497;-89
2021/10/09 05:18:56;;;;;;;16.17;12.20;;;5.70;99.90;;;;;;6243522;22;20193;-89
2021/10/09 05:21:22;;;;;;;19.77;13.00;;;5.70;99.90;;;;;;6243623;22;20491;-89
2021/10/09 05:23:48;;;;;;;16.43;13.30;;;5.80;99.90;;;;;;6243702;22;20547;-89
2021/10/09 05:26:14;;;;;;;17.47;13.20;;;5.80;99.90;;;;;;6242831;22;20162;-89
2021/10/09 05:28:49;;;;;;;18.50;14.70;;;5.90;99.90;;;;;;6243583;22;20223;-89
2021/10/09 05:31:26;;;;;;;16.17;13.27;;;5.80;99.90;;;;;;6243569;22;20162;-89
2021/10/09 05:33:53;;;;;;;17.00;13.47;;;5.80;99.90;;;;;;6241886;22;20447;-88
2021/10/09 05:36:20;;;;;;;16.33;13.00;;;5.80;99.90;;;;;;6242272;22;20392;-89
2021/10/09 05:38:46;;;;;;;16.93;12.87;;;5.80;99.90;;;;;;6243350;22;20570;-88
2021/10/09 05:41:12;;;;;;;16.60;12.00;;;5.70;99.90;;;;;;6242055;22;20841;-87
2021/10/09 05:43:37;;;;;;;16.57;12.60;;;5.70;99.90;;;;;;6267675;22;20430;-88
2021/10/09 05:46:03;;;;;;;14.77;12.63;;;5.70;99.90;;;;;;6242619;22;20162;-88
2021/10/09 05:48:29;;;;;;;16.90;13.67;;;5.80;99.90;;;;;;6265554;22;20165;-89
2021/10/09 05:56:41;;;;;;;18.07;14.37;;;5.80;99.90;;;;;;6269794;22;20420;-86
2021/10/09 07:00:25;;;;;;;21.47;16.83;;;8.10;99.90;;;;;;6269847;22;20711;-87
2021/10/09 07:02:51;;;;;;;20.00;16.40;;;8.20;99.90;;;;;;6244361;22;20412;-88
2021/10/09 07:05:17;;;;;;;22.70;16.07;;;8.40;99.90;;;;;;6244392;22;20235;-88
2021/10/09 07:07:52;;;;;;;22.23;17.50;;;8.50;99.90;;;;;;6244021;22;20652;-88
2021/10/09 07:10:19;;;;;;;22.83;17.10;;;8.70;99.90;;;;;;6242646;22;20392;-86
2021/10/09 07:12:46;;;;;;;22.90;18.80;;;8.80;99.90;;;;;;6243766;22;20444;-86
2021/10/09 07:15:14;;;;;;;25.07;16.87;;;9.00;99.90;;;;;;6268523;22;20385;-86
2021/10/09 07:17:42;;;;;;;19.80;16.23;;;9.00;99.90;;;;;;6270226;22;20457;-86
2021/10/09 07:20:08;;;;;;;23.17;18.27;;;9.10;99.90;;;;;;6243957;22;20397;-86
2021/10/09 07:22:37;;;;;;;22.30;17.17;;;9.30;99.90;;;;;;6243258;22;20385;-88
2021/10/09 07:25:20;;;;;;;23.97;16.60;;;9.40;99.90;;;;;;6271664;22;20388;-89
2021/10/09 07:27:56;;;;;;;22.80;17.17;;;9.60;99.90;;;;;;6239723;22;20401;-88
2021/10/09 07:30:25;;;;;;;22.90;17.87;;;9.70;99.90;;;;;;6238562;22;20392;-86
2021/10/09 07:32:50;;;;;;;24.50;17.37;;;9.80;99.90;;;;;;6243217;22;20443;-85
2021/10/09 07:35:16;;;;;;;22.37;17.10;;;9.90;99.90;;;;;;6243764;22;20389;-84
2021/10/09 07:37:42;;;;;;;22.13;17.50;;;9.90;99.90;;;;;;6243661;22;20610;-85
2021/10/09 07:40:11;;;;;;;22.33;17.17;;;10.10;99.90;;;;;;6243557;22;20536;-85
2021/10/09 07:42:39;;;;;;;19.27;16.93;;;10.10;99.90;;;;;;6243092;22;20397;-86
2021/10/09 07:45:06;;;;;;;23.43;17.43;;;10.20;99.90;;;;;;6242734;22;20392;-86
2021/10/09 07:47:32;;;;;;;25.90;18.63;;;10.30;99.90;;;;;;6243658;22;20401;-86
2021/10/09 07:49:57;;;;;;;25.10;19.10;;;10.40;99.90;;;;;;6244301;22;20875;-85
2021/10/09 07:52:23;;;;;;;22.93;19.00;;;10.50;99.90;;;;;;6243188;22;20612;-85
2021/10/09 07:54:49;;;;;;;21.80;18.00;;;10.50;99.90;;;;;;6240805;22;20604;-85
2021/10/09 07:57:18;;;;;;;24.23;19.07;;;10.60;99.90;;;;;;6243492;22;20466;-85
2021/10/09 07:59:44;;;;;;;24.23;19.03;;;10.70;99.90;;;;;;6244475;22;20485;-85
2021/10/09 08:02:12;;;;;;;23.83;17.97;;;10.90;99.90;;;;;;6243505;22;20900;-86
2021/10/09 08:04:42;;;;;;;21.40;19.07;;;11.00;99.90;;;;;;6242602;22;20531;-85
2021/10/09 08:07:08;;;;;;;24.37;18.37;;;11.00;99.90;;;;;;6267333;22;20557;-85
2021/10/09 08:09:35;;;;;;;23.60;17.73;;;11.10;99.90;;;;;;6250608;22;20385;-87
2021/10/09 08:12:01;;;;;;;21.80;18.20;;;11.20;99.90;;;;;;6257703;22;20472;-85
2021/10/09 08:14:28;;;;;;;22.13;17.97;;;11.30;99.90;;;;;;6243070;22;20479;-86
2021/10/09 08:16:54;;;;;;;24.70;18.93;;;11.50;99.90;;;;;;6217176;22;20169;-86
2021/10/09 08:19:20;;;;;;;23.47;18.40;;;11.60;99.90;;;;;;6242957;22;20397;-86
2021/10/09 08:21:46;;;;;;;21.30;17.87;;;11.70;99.90;;;;;;6270722;22;20249;-86
2021/10/09 08:40:24;;;;;;;20.33;17.77;;;12.30;99.90;;;;;;6271505;22;21118;-87
2021/10/09 08:42:50;;;;;;;30.30;18.93;;;12.20;99.90;;;;;;6244137;22;20397;-88
2021/10/09 08:45:18;;;;;;;23.87;18.43;;;12.30;99.90;;;;;;6243717;22;20268;-86
2021/10/09 08:47:45;;;;;;;22.83;16.80;;;12.50;99.90;;;;;;6243176;22;20170;-88
2021/10/09 08:50:13;;;;;;;21.17;17.43;;;12.50;99.90;;;;;;6243771;22;20889;-85
2021/10/09 08:53:09;;;;;;;20.40;18.20;;;12.60;99.90;;;;;;6238183;22;20468;-85
2021/10/09 08:55:48;;;;;;;19.13;17.00;;;12.80;99.90;;;;;;6242622;22;20393;-87
2021/10/09 09:01:59;;;;;;;21.87;16.80;;;13.10;99.90;;;;;;6271479;22;20886;-86
2021/10/09 09:07:56;;;;;;;20.53;17.27;;;13.20;99.90;;;;;;6270447;22;20438;-87
2021/10/09 09:27:38;;;;;;;21.00;18.70;;;14.20;99.90;;;;;;6268489;22;20432;-87
2021/10/09 09:33:33;;;;;;;21.33;16.43;;;14.10;99.90;;;;;;6268900;22;21108;-87
2021/10/09 09:36:23;;;;;;;18.43;14.40;;;14.30;99.90;;;;;;6242115;22;20381;-87
2021/10/09 09:41:48;;;;;;;16.27;14.57;;;14.60;99.90;;;;;;6260006;22;20420;-87
2021/10/09 09:44:25;;;;;;;19.90;16.00;;;14.60;99.90;;;;;;6270275;22;20381;-86
2021/10/09 09:47:01;;;;;;;17.77;15.87;;;14.80;99.90;;;;;;6242659;22;20400;-85
2021/10/09 09:49:28;;;;;;;15.90;14.27;;;14.80;99.90;;;;;;6242479;22;20392;-85
2021/10/09 09:51:55;;;;;;;20.10;16.07;;;14.80;99.90;;;;;;6242650;22;20424;-85
2021/10/09 09:54:27;;;;;;;22.17;14.50;;;14.60;99.90;;;;;;6242108;22;20868;-87
2021/10/09 09:57:01;;;;;;;17.33;14.30;;;14.60;99.90;;;;;;6241441;22;20392;-86
2021/10/09 09:59:34;;;;;;;20.10;15.57;;;14.60;99.90;;;;;;6242387;22;20814;-87
2021/10/09 10:02:03;;;;;;;16.90;15.10;;;14.60;99.90;;;;;;6242091;22;20412;-84
2021/10/09 10:04:31;;;;;;;15.90;14.40;;;14.80;99.90;;;;;;6242089;22;20397;-88
2021/10/09 10:07:05;;;;;;;20.37;14.27;;;15.00;99.90;;;;;;6242148;22;20450;-87
2021/10/09 10:09:36;;;;;;;16.37;13.87;;;15.10;99.90;;;;;;6241941;22;20400;-88
2021/10/09 10:12:10;;;;;;;15.57;13.70;;;15.20;99.90;;;;;;6270465;22;20384;-88
2021/10/09 10:17:10;;;;;;;15.23;13.03;;;15.60;99.90;;;;;;6269643;22;20153;-91
2021/10/09 10:19:54;;;;;;;14.90;13.03;;;15.40;99.90;;;;;;6242390;22;20401;-91
2021/10/09 10:22:35;;;;;;;16.10;12.30;;;15.50;99.90;;;;;;6241795;22;20158;-91
2021/10/09 10:25:02;;;;;;;15.97;13.27;;;15.90;99.80;;;;;;6242881;22;20385;-90
2021/10/09 10:27:41;;;;;;;13.97;12.57;;;16.10;98.50;;;;;;6240108;22;20401;-89
2021/10/09 10:30:16;;;;;;;14.67;13.10;;;15.70;99.60;;;;;;6239490;22;20392;-89
2021/10/09 10:33:02;;;;;;;16.90;13.77;;;15.90;98.80;;;;;;6241368;22;20729;-88
2021/10/09 10:35:34;;;;;;;14.80;13.20;;;15.40;98.90;;;;;;6241263;22;20384;-88
2021/10/09 10:38:17;;;;;;;14.93;13.17;;;15.20;99.20;;;;;;6240234;22;20393;-88
2021/10/09 10:40:59;;;;;;;15.80;12.90;;;15.30;99.50;;;;;;6241223;22;20472;-88
2021/10/09 10:46:19;;;;;;;15.60;12.67;;;15.50;99.70;;;;;;6269601;22;20874;-89
2021/10/09 10:48:54;;;;;;;14.10;12.30;;;15.50;99.40;;;;;;6241710;22;20389;-88
2021/10/09 10:57:00;;;;;;;12.43;10.97;;;15.80;98.70;;;;;;6269023;22;20431;-88
2021/10/09 10:59:31;;;;;;;13.47;12.07;;;15.80;98.10;;;;;;6241745;22;20393;-88
2021/10/09 11:02:43;;;;;;;14.13;11.63;;;16.00;98.00;;;;;;6268361;22;21144;-89
2021/10/09 11:05:14;;;;;;;14.93;12.03;;;16.60;98.10;;;;;;6241618;22;20409;-88
2021/10/09 11:07:43;;;;;;;13.53;12.13;;;16.60;96.90;;;;;;6242091;22;20404;-88
2021/10/09 11:10:31;;;;;;;12.53;11.33;;;16.40;97.20;;;;;;6269887;22;20391;-88
2021/10/09 11:12:58;;;;;;;14.60;11.00;;;16.70;97.10;;;;;;6244775;22;20558;-89
2021/10/09 11:15:47;;;;;;;13.37;11.30;;;16.60;97.00;;;;;;6268313;22;20456;-89
2021/10/09 11:18:20;;;;;;;12.70;11.57;;;16.50;96.80;;;;;;6241351;22;20409;-88
2021/10/09 11:20:47;;;;;;;14.20;11.60;;;16.20;97.00;;;;;;6267924;22;20396;-88
2021/10/09 11:23:17;;;;;;;12.53;11.23;;;16.30;97.00;;;;;;6235584;22;20396;-88
2021/10/09 11:25:45;;;;;;;12.10;10.80;;;16.60;96.80;;;;;;6210915;22;20396;-88
2021/10/09 11:28:25;;;;;;;13.30;11.83;;;16.70;96.40;;;;;;6269824;22;20397;-87
2021/10/09 11:30:51;;;;;;;13.50;11.27;;;17.00;96.90;;;;;;6243563;22;20445;-88
2021/10/09 11:33:24;;;;;;;13.03;11.03;;;17.30;96.30;;;;;;6243432;22;20814;-87
2021/10/09 11:35:50;;;;;;;20.13;12.87;;;17.10;95.70;;;;;;6242402;22;20885;-88
2021/10/09 11:38:21;;;;;;;12.60;11.33;;;17.40;96.90;;;;;;6243344;22;20419;-88
2021/10/09 11:40:59;;;;;;;14.57;12.17;;;17.40;95.60;;;;;;6242639;22;20397;-88
2021/10/09 11:57:24;;;;;;;11.47;10.23;;;18.30;94.00;;;;;;6270114;22;20384;-86
2021/10/09 11:59:49;;;;;;;11.37;10.17;;;17.90;94.00;;;;;;6243501;22;20399;-87
2021/10/09 12:02:35;;;;;;;12.50;11.20;;;18.30;95.70;;;;;;6243662;22;20436;-87
2021/10/09 12:05:01;;;;;;;12.83;11.37;;;18.70;94.10;;;;;;6266263;22;20689;-87
2021/10/09 12:07:27;;;;;;;12.07;10.80;;;18.50;94.40;;;;;;6242096;22;20476;-87
2021/10/09 12:10:01;;;;;;;11.37;10.27;;;18.70;94.90;;;;;;6269188;22;20708;-86
2021/10/09 12:12:35;;;;;;;12.87;10.37;;;18.70;92.90;;;;;;6242048;22;20392;-86
2021/10/09 12:15:01;;;;;;;12.10;10.70;;;19.00;94.40;;;;;;6243338;22;20476;-86
2021/10/09 12:17:36;;;;;;;10.40;9.27;;;19.40;92.20;;;;;;6242004;22;20404;-86
2021/10/09 12:20:06;;;;;;;11.77;10.57;;;18.90;93.20;;;;;;6242023;22;20400;-86
2021/10/09 12:22:42;;;;;;;11.10;9.93;;;18.80;92.80;;;;;;6243287;22;20393;-86
2021/10/09 12:25:22;;;;;;;11.73;9.90;;;18.90;93.10;;;;;;6242317;22;20428;-86
2021/10/09 12:28:01;;;;;;;11.80;10.30;;;18.60;92.10;;;;;;6241745;22;20392;-86
2021/10/09 12:30:48;;;;;;;13.53;10.43;;;18.70;92.80;;;;;;6242924;22;20771;-86
2021/10/09 12:33:38;;;;;;;12.20;11.07;;;18.80;92.80;;;;;;6243261;22;20440;-86
2021/10/09 12:36:42;;;;;;;12.10;10.50;;;19.00;92.60;;;;;;6242748;22;20404;-87
2021/10/09 12:39:27;;;;;;;11.93;10.73;;;19.00;93.90;;;;;;6270433;22;20396;-87
2021/10/09 12:41:54;;;;;;;11.53;9.80;;;18.90;92.40;;;;;;6250553;22;20465;-87
2021/10/09 12:44:22;;;;;;;14.17;9.80;;;18.80;92.80;;;;;;6216940;22;20783;-86
2021/10/09 12:46:49;;;;;;;11.47;10.40;;;19.10;93.60;;;;;;6268847;22;20396;-87
2021/10/09 12:49:16;;;;;;;13.37;11.67;;;19.80;92.80;;;;;;6242727;22;20380;-86
2021/10/09 12:51:42;;;;;;;12.50;11.00;;;19.80;92.40;;;;;;6243747;22;20492;-87
2021/10/09 12:54:08;;;;;;;12.37;11.17;;;19.90;93.00;;;;;;6243630;22;20808;-87
2021/10/09 12:56:41;;;;;;;11.33;10.23;;;20.40;91.50;;;;;;6244609;22;20844;-89
2021/10/09 12:59:11;;;;;;;10.63;9.63;;;20.80;90.80;;;;;;6242978;22;20451;-88
2021/10/09 13:01:37;;;;;;;11.33;10.23;;;21.60;90.80;;;;;;6242789;22;20416;-85
2021/10/09 13:04:04;;;;;;;10.13;9.13;;;22.40;89.20;;;;;;6242565;22;20419;-85
2021/10/09 13:06:31;;;;;;;12.43;10.13;;;22.00;87.10;;;;;;6242651;22;20424;-86
2021/10/09 13:08:57;;;;;;;11.40;9.37;;;21.40;86.30;;;;;;6242160;22;20408;-86
2021/10/09 13:11:26;;;;;;;9.00;8.07;;;21.20;88.20;;;;;;6244491;22;20609;-90
2021/10/09 13:13:51;;;;;;;8.87;7.53;;;22.00;82.70;;;;;;6243594;22;20908;-90
2021/10/09 13:16:17;;;;;;;11.90;7.90;;;21.20;80.20;;;;;;6243453;22;20393;-91
2021/10/09 13:18:43;;;;;;;8.30;7.50;;;20.60;83.30;;;;;;6244356;22;20188;-88
2021/10/09 13:21:09;;;;;;;8.87;7.23;;;20.60;84.10;;;;;;6241600;22;20157;-91
2021/10/09 13:23:38;;;;;;;8.33;7.53;;;21.90;83.50;;;;;;6243057;22;20404;-89
2021/10/09 13:26:03;;;;;;;9.60;7.90;;;23.20;80.40;;;;;;6241856;22;20159;-90
2021/10/09 13:28:29;;;;;;;10.73;8.40;;;22.60;79.80;;;;;;6242188;22;20427;-90
2021/10/09 13:30:55;;;;;;;10.23;9.13;;;22.20;80.80;;;;;;6243122;22;20166;-90
2021/10/09 13:33:22;;;;;;;9.67;8.67;;;21.60;79.50;;;;;;6242601;22;20444;-90
2021/10/09 13:35:47;;;;;;;9.33;8.40;;;20.60;82.90;;;;;;6242448;22;20539;-89
2021/10/09 13:38:14;;;;;;;9.70;8.70;;;20.70;83.60;;;;;;6243286;22;20447;-90
2021/10/09 13:40:41;;;;;;;13.03;9.20;;;21.50;85.30;;;;;;6242865;22;20166;-89
2021/10/09 13:43:11;;;;;;;9.47;8.67;;;22.20;82.40;;;;;;6243041;22;20381;-90
2021/10/09 13:45:41;;;;;;;9.83;8.83;;;22.20;81.50;;;;;;6244170;22;20389;-89
2021/10/09 13:48:07;;;;;;;10.20;9.27;;;21.70;86.30;;;;;;6244213;22;20389;-90
2021/10/09 13:50:37;;;;;;;9.23;8.33;;;21.10;84.10;;;;;;6242309;22;20424;-91
2021/10/09 13:53:03;;;;;;;9.33;8.43;;;20.60;84.90;;;;;;6243823;22;20197;-91
2021/10/09 13:55:28;;;;;;;9.90;8.90;;;19.30;88.60;;;;;;6244637;22;20564;-91
2021/10/09 13:57:54;;;;;;;9.83;8.73;;;18.90;88.50;;;;;;6243985;22;20166;-92
2021/10/09 14:00:20;;;;;;;9.93;8.97;;;18.60;89.70;;;;;;6244113;22;20303;-92
2021/10/09 14:02:46;;;;;;;11.67;10.10;;;18.50;90.70;;;;;;6244064;22;20711;-92
2021/10/09 14:05:12;;;;;;;12.93;9.80;;;18.70;90.60;;;;;;6243761;22;20174;-90
2021/10/09 14:07:38;;;;;;;10.23;9.13;;;18.60;90.50;;;;;;6243697;22;20400;-90
2021/10/09 14:10:04;;;;;;;10.60;9.30;;;18.50;90.50;;;;;;6258816;22;20401;-90
2021/10/09 14:12:31;;;;;;;9.47;8.63;;;18.50;90.30;;;;;;6250514;22;20162;-91
2021/10/09 14:14:58;;;;;;;10.10;8.87;;;18.80;89.40;;;;;;6243227;22;20401;-90
2021/10/09 14:17:23;;;;;;;13.20;9.60;;;19.10;89.20;;;;;;6242822;22;20397;-90
2021/10/09 14:19:54;;;;;;;9.70;8.80;;;19.10;88.70;;;;;;6244237;22;20409;-90
2021/10/09 14:22:21;;;;;;;9.70;8.80;;;18.70;90.00;;;;;;6243585;22;20180;-90
2021/10/09 14:24:47;;;;;;;12.03;9.07;;;18.40;90.90;;;;;;6242253;22;20393;-90
2021/10/09 14:27:13;;;;;;;10.70;9.70;;;18.40;90.40;;;;;;6243864;22;20420;-90
2021/10/09 14:29:38;;;;;;;10.37;9.37;;;18.50;90.10;;;;;;6243364;22;20158;-90
2021/10/09 14:32:04;;;;;;;9.33;8.43;;;18.50;90.30;;;;;;6243589;22;20535;-89
2021/10/09 14:34:30;;;;;;;11.60;9.20;;;18.70;90.80;;;;;;6237011;22;20186;-89
2021/10/09 14:36:56;;;;;;;10.03;8.97;;;18.40;91.40;;;;;;6243199;22;20482;-91
2021/10/09 14:39:23;;;;;;;9.53;8.63;;;18.40;91.30;;;;;;6241678;22;20162;-90
2021/10/09 14:41:49;;;;;;;9.03;8.13;;;18.40;92.00;;;;;;6242170;22;20230;-90
2021/10/09 14:44:15;;;;;;;9.83;8.77;;;18.60;91.20;;;;;;6241441;22;20392;-90
2021/10/09 14:49:19;;;;;;;8.80;7.70;;;18.50;90.10;;;;;;6269921;22;20188;-92
2021/10/09 14:55:06;;;;;;;9.30;7.70;;;18.50;91.00;;;;;;6271197;22;20440;-91
2021/10/09 15:17:02;;;;;;;9.80;7.70;;;20.50;82.30;;;;;;6272105;22;20384;-90
2021/10/09 15:19:28;;;;;;;7.43;6.73;;;19.40;85.90;;;;;;6245714;22;20561;-91
2021/10/09 15:21:54;;;;;;;7.87;7.07;;;18.50;88.20;;;;;;6243107;22;20403;-91
2021/10/09 15:24:19;;;;;;;6.77;6.17;;;18.30;88.00;;;;;;6243990;22;20173;-91
2021/10/09 15:26:45;;;;;;;7.53;6.17;;;18.70;86.50;;;;;;6245486;22;20163;-90
2021/10/09 15:29:11;;;;;;;6.63;6.03;;;18.20;86.70;;;;;;6244803;22;20161;-88
2021/10/09 15:31:36;;;;;;;6.70;6.10;;;17.40;89.00;;;;;;6218568;22;20166;-86
2021/10/09 15:34:02;;;;;;;6.53;5.63;;;16.50;90.00;;;;;;6242906;22;20259;-87
2021/10/09 15:36:29;;;;;;;9.80;6.67;;;16.00;90.30;;;;;;6245194;22;20204;-88
2021/10/09 15:38:54;;;;;;;5.60;5.10;;;15.90;90.70;;;;;;6246776;22;20192;-87
2021/10/09 15:41:22;;;;;;;8.77;5.53;;;15.70;91.20;;;;;;6254063;22;20419;-87
2021/10/09 15:43:48;;;;;;;6.43;5.80;;;15.50;91.90;;;;;;6243863;22;20197;-88